Time,TemperatureF,DewpointF,PressureIn,WindDirection,WindDirectionDegrees,WindSpeedMPH,WindSpeedGustMPH,Humidity,HourlyPrecipIn,Conditions,Clouds,dailyrainin,SoftwareType,DateUTC
2013-01-31 00:03:00,33.0,26.0,-100.00,SW,225,0.0,16.0,77,0.00,,,-99.99,,2013-01-31 05:03:00,
2013-01-31 00:11:00,32.0,25.0,-100.00,SW,215,0.0,0.0,73,0.00,,,-99.99,,2013-01-31 05:11:00,
2013-01-31 00:22:00,32.0,24.0,-100.00,WSW,240,0.0,0.0,72,0.00,,,-99.99,,2013-01-31 05:22:00,
2013-01-31 00:32:00,32.0,24.0,-100.00,WSW,240,0.0,0.0,72,0.00,,,-99.99,,2013-01-31 05:32:00,
2013-01-31 00:42:00,32.0,24.0,-100.00,SSW,195,0.0,1.0,72,0.00,,,-99.99,,2013-01-31 05:42:00,
2013-01-31 00:52:00,32.0,24.0,-100.00,SSW,195,0.0,1.0,72,0.00,,,-99.99,,2013-01-31 05:52:00,
2013-01-31 01:01:00,32.0,24.0,-100.00,SSW,195,0.0,1.0,72,0.00,,,-99.99,,2013-01-31 06:01:00,
2013-01-31 01:11:00,32.0,24.0,-100.00,SSW,195,0.0,1.0,72,0.00,,,-99.99,,2013-01-31 06:11:00,
2013-01-31 09:03:00,20.0,9.0,-100.00,SSW,210,0.0,0.0,62,0.00,,,-99.99,,2013-01-31 14:03:00,
2013-01-31 09:11:00,20.0,10.0,-100.00,SSW,195,0.0,0.0,64,0.00,,,-99.99,,2013-01-31 14:11:00,
2013-01-31 09:22:00,20.0,11.0,-100.00,SSE,165,0.0,0.0,67,0.00,,,-99.99,,2013-01-31 14:22:00,
2013-01-31 09:32:00,20.0,12.0,-100.00,South,175,0.0,0.0,70,0.00,,,-99.99,,2013-01-31 14:32:00,
2013-01-31 09:42:00,20.0,13.0,-100.00,SSE,160,0.0,0.0,74,0.00,,,-99.99,,2013-01-31 14:42:00,
2013-01-31 09:52:00,20.0,14.0,-100.00,SSW,205,0.0,0.0,77,0.00,,,-99.99,,2013-01-31 14:52:00,
2013-01-31 10:03:00,20.0,14.0,-100.00,South,190,0.0,0.0,80,1.69,,,-99.99,,2013-01-31 15:03:00,
2013-01-31 10:12:00,19.0,15.0,-100.00,South,180,0.0,0.0,81,1.69,,,-99.99,,2013-01-31 15:12:00,
2013-01-31 10:22:00,20.0,12.0,-100.00,SSW,205,0.0,0.0,71,0.55,,,-99.99,,2013-01-31 15:22:00,
2013-01-31 10:32:00,21.0,12.0,-100.00,South,175,0.0,0.0,68,0.00,,,-99.99,,2013-01-31 15:32:00,
2013-01-31 10:42:00,21.0,12.0,-100.00,South,190,0.0,0.0,67,0.00,,,-99.99,,2013-01-31 15:42:00,
2013-01-31 10:51:00,21.0,12.0,-100.00,SSW,200,0.0,0.0,66,0.00,,,-99.99,,2013-01-31 15:51:00,
2013-01-31 11:03:00,21.0,11.0,-100.00,SSW,205,0.0,0.0,63,0.00,,,-99.99,,2013-01-31 16:03:00,
2013-01-31 11:13:00,21.0,11.0,-100.00,South,175,0.0,0.0,64,0.00,,,-99.99,,2013-01-31 16:13:00,
2013-01-31 11:22:00,22.0,11.0,-100.00,South,185,0.0,0.0,62,0.00,,,-99.99,,2013-01-31 16:22:00,
2013-01-31 11:33:00,22.0,11.0,-100.00,SW,215,0.0,0.0,62,0.00,,,-99.99,,2013-01-31 16:33:00,
2013-01-31 11:42:00,22.0,12.0,-100.00,South,175,0.0,0.0,64,0.00,,,-99.99,,2013-01-31 16:42:00,
2013-01-31 11:52:00,22.0,12.0,-100.00,South,175,0.0,0.0,64,0.00,,,-99.99,,2013-01-31 16:52:00,
2013-01-31 12:03:00,22.0,14.0,-100.00,SSW,205,0.0,0.0,69,0.00,,,-99.99,,2013-01-31 17:03:00,
2013-01-31 12:13:00,23.0,14.0,-100.00,South,185,0.0,0.0,69,0.00,,,-99.99,,2013-01-31 17:13:00,
2013-01-31 12:23:00,22.0,15.0,-100.00,South,190,0.0,0.0,71,0.00,,,-99.99,,2013-01-31 17:23:00,
2013-01-31 12:32:00,22.0,15.0,-100.00,South,190,0.0,0.0,71,0.00,,,-99.99,,2013-01-31 17:32:00,
2013-01-31 12:44:00,22.0,15.0,-100.00,South,190,0.0,0.0,71,0.00,,,-99.99,,2013-01-31 17:44:00,
2013-01-31 12:53:00,24.0,16.0,-100.00,South,170,0.0,0.0,71,0.00,,,-99.99,,2013-01-31 17:53:00,
2013-01-31 13:03:00,25.0,16.0,-100.00,South,170,0.0,0.0,69,0.00,,,-99.99,,2013-01-31 18:03:00,
2013-01-31 13:13:00,27.0,17.0,-100.00,South,190,0.0,0.0,65,0.00,,,-99.99,,2013-01-31 18:13:00,
2013-01-31 13:22:00,25.0,15.0,-100.00,South,170,0.0,0.0,64,0.00,,,-99.99,,2013-01-31 18:22:00,
2013-01-31 13:32:00,26.0,13.0,-100.00,SSW,195,0.0,0.0,59,0.00,,,-99.99,,2013-01-31 18:32:00,
2013-01-31 13:43:00,26.0,14.0,-100.00,South,180,0.0,0.0,60,0.00,,,-99.99,,2013-01-31 18:43:00,
2013-01-31 13:52:00,26.0,15.0,-100.00,South,190,0.0,0.0,62,0.00,,,-99.99,,2013-01-31 18:52:00,
2013-01-31 14:03:00,26.0,17.0,-100.00,SSE,165,0.0,0.0,68,0.00,,,-99.99,,2013-01-31 19:03:00,
2013-01-31 14:12:00,25.0,19.0,-100.00,SSW,200,0.0,0.0,76,0.55,,,-99.99,,2013-01-31 19:12:00,
2013-01-31 14:22:00,25.0,18.0,-100.00,South,170,0.0,0.0,74,0.00,,,-99.99,,2013-01-31 19:22:00,
2013-01-31 14:33:00,26.0,19.0,-100.00,South,170,0.0,0.0,73,0.00,,,-99.99,,2013-01-31 19:33:00,
2013-01-31 14:42:00,26.0,16.0,-100.00,SSW,205,0.0,0.0,65,0.00,,,-99.99,,2013-01-31 19:42:00,
2013-01-31 14:52:00,26.0,15.0,-100.00,SSW,195,0.0,0.0,63,0.00,,,-99.99,,2013-01-31 19:52:00,
2013-01-31 15:02:00,26.0,14.0,-100.00,SSW,195,0.0,0.0,58,0.00,,,-99.99,,2013-01-31 20:02:00,
2013-01-31 15:12:00,26.0,15.0,-100.00,South,170,0.0,0.0,63,0.00,,,-99.99,,2013-01-31 20:12:00,
2013-01-31 15:22:00,25.0,15.0,-100.00,SSW,210,0.0,0.0,64,0.00,,,-99.99,,2013-01-31 20:22:00,
2013-01-31 15:32:00,25.0,13.0,-100.00,South,190,0.0,0.0,61,0.55,,,-99.99,,2013-01-31 20:32:00,
2013-01-31 15:42:00,25.0,13.0,-100.00,SSW,205,0.0,0.0,61,0.00,,,-99.99,,2013-01-31 20:42:00,
2013-01-31 15:52:00,25.0,11.0,-100.00,South,180,0.0,0.0,55,0.00,,,-99.99,,2013-01-31 20:52:00,
2013-01-31 16:02:00,25.0,11.0,-100.00,SSW,200,0.0,0.0,55,0.00,,,-99.99,,2013-01-31 21:02:00,
2013-01-31 16:12:00,24.0,12.0,-100.00,South,185,0.0,0.0,57,0.00,,,-99.99,,2013-01-31 21:12:00,
2013-01-31 16:22:00,24.0,14.0,-100.00,SSW,200,0.0,0.0,64,0.00,,,-99.99,,2013-01-31 21:22:00,
2013-01-31 16:32:00,24.0,13.0,-100.00,SSW,205,0.0,0.0,61,0.00,,,-99.99,,2013-01-31 21:32:00,
2013-01-31 16:42:00,24.0,13.0,-100.00,South,175,0.0,0.0,60,0.00,,,-99.99,,2013-01-31 21:42:00,
2013-01-31 16:52:00,24.0,13.0,-100.00,South,190,0.0,0.0,63,0.00,,,-99.99,,2013-01-31 21:52:00,
2013-01-31 17:03:00,24.0,13.0,-100.00,SSE,165,0.0,0.0,61,0.00,,,-99.99,,2013-01-31 22:03:00,
2013-01-31 17:11:00,24.0,12.0,-100.00,SSW,205,0.0,0.0,60,0.00,,,-99.99,,2013-01-31 22:11:00,
2013-01-31 17:22:00,24.0,12.0,-100.00,SSW,205,0.0,0.0,60,0.00,,,-99.99,,2013-01-31 22:22:00,
2013-01-31 17:33:00,23.0,11.0,-100.00,SSW,210,0.0,0.0,59,0.00,,,-99.99,,2013-01-31 22:33:00,
2013-01-31 17:42:00,22.0,14.0,-100.00,SSW,205,0.0,0.0,69,0.00,,,-99.99,,2013-01-31 22:42:00,
2013-01-31 17:51:00,22.0,13.0,-100.00,SSW,200,0.0,0.0,66,0.00,,,-99.99,,2013-01-31 22:51:00,
2013-01-31 18:03:00,22.0,13.0,-100.00,SSW,200,0.0,0.0,66,0.00,,,-99.99,,2013-01-31 23:03:00,
2013-01-31 18:12:00,21.0,12.0,-100.00,South,185,0.0,0.0,66,0.00,,,-99.99,,2013-01-31 23:12:00,
2013-01-31 18:22:00,21.0,12.0,-100.00,SSW,195,0.0,0.0,66,0.00,,,-99.99,,2013-01-31 23:22:00,
2013-01-31 18:32:00,21.0,12.0,-100.00,SSW,195,0.0,0.0,66,0.00,,,-99.99,,2013-01-31 23:32:00,
2013-01-31 18:42:00,21.0,11.0,-100.00,South,175,0.0,0.0,65,0.00,,,-99.99,,2013-01-31 23:42:00,
2013-01-31 18:52:00,20.0,11.0,-100.00,SSW,195,0.0,0.0,67,0.00,,,-99.99,,2013-01-31 23:52:00,
2013-01-31 19:02:00,20.0,11.0,-100.00,SW,220,0.0,0.0,66,0.00,,,-99.99,,2013-02-01 00:02:00,
2013-01-31 19:11:00,20.0,11.0,-100.00,SW,220,0.0,0.0,66,0.00,,,-99.99,,2013-02-01 00:11:00,
2013-01-31 19:22:00,20.0,10.0,-100.00,SW,230,0.0,0.0,64,0.00,,,-99.99,,2013-02-01 00:22:00,
2013-01-31 19:32:00,20.0,10.0,-100.00,SW,215,0.0,0.0,64,0.00,,,-99.99,,2013-02-01 00:32:00,
2013-01-31 19:42:00,20.0,11.0,-100.00,SSW,200,0.0,0.0,65,0.00,,,-99.99,,2013-02-01 00:42:00,
2013-01-31 19:52:00,20.0,10.0,-100.00,SW,230,0.0,0.0,65,0.00,,,-99.99,,2013-02-01 00:52:00,
2013-01-31 20:01:00,20.0,10.0,-100.00,SSW,200,0.0,0.0,66,0.00,,,-99.99,,2013-02-01 01:01:00,
2013-01-31 20:11:00,20.0,11.0,-100.00,SW,215,0.0,0.0,67,0.00,,,-99.99,,2013-02-01 01:11:00,
2013-01-31 20:21:00,19.0,10.0,-100.00,SSW,210,0.0,0.0,67,0.00,,,-99.99,,2013-02-01 01:21:00,
2013-01-31 20:32:00,19.0,9.0,-100.00,South,190,0.0,0.0,64,0.00,,,-99.99,,2013-02-01 01:32:00,
2013-01-31 20:42:00,19.0,8.0,-100.00,SW,230,0.0,0.0,63,0.00,,,-99.99,,2013-02-01 01:42:00,
2013-01-31 20:52:00,19.0,8.0,-100.00,SSW,195,0.0,0.0,62,0.00,,,-99.99,,2013-02-01 01:52:00,
2013-01-31 21:02:00,18.0,10.0,-100.00,WSW,245,0.0,0.0,69,0.00,,,-99.99,,2013-02-01 02:02:00,
2013-01-31 21:11:00,18.0,11.0,-100.00,SW,235,0.0,0.0,75,0.00,,,-99.99,,2013-02-01 02:11:00,
2013-01-31 21:21:00,17.0,11.0,-100.00,WSW,250,0.0,0.0,76,0.00,,,-99.99,,2013-02-01 02:21:00,
2013-01-31 21:32:00,17.0,11.0,-100.00,SW,235,0.0,0.0,78,0.55,,,-99.99,,2013-02-01 02:32:00,
2013-01-31 21:42:00,17.0,10.0,-100.00,WSW,240,0.0,0.0,74,0.00,,,-99.99,,2013-02-01 02:42:00,
2013-01-31 21:52:00,17.0,8.0,-100.00,SSW,205,0.0,0.0,68,0.00,,,-99.99,,2013-02-01 02:52:00,
2013-01-31 22:02:00,16.0,8.0,-100.00,SW,230,0.0,0.0,69,0.00,,,-99.99,,2013-02-01 03:02:00,
2013-01-31 22:12:00,16.0,7.0,-100.00,West,270,0.0,0.0,66,0.00,,,-99.99,,2013-02-01 03:12:00,
2013-01-31 22:21:00,16.0,5.0,-100.00,WSW,240,0.0,0.0,61,0.00,,,-99.99,,2013-02-01 03:21:00,
2013-01-31 22:33:00,16.0,5.0,-100.00,SW,235,0.0,0.0,62,0.00,,,-99.99,,2013-02-01 03:33:00,
2013-01-31 22:42:00,16.0,4.0,-100.00,SW,215,0.0,0.0,60,0.00,,,-99.99,,2013-02-01 03:42:00,
2013-01-31 22:51:00,16.0,5.0,-100.00,SW,225,0.0,0.0,61,0.00,,,-99.99,,2013-02-01 03:51:00,
2013-01-31 23:02:00,16.0,5.0,-100.00,SW,230,0.0,0.0,61,0.00,,,-99.99,,2013-02-01 04:02:00,
2013-01-31 23:11:00,16.0,5.0,-100.00,WSW,245,0.0,0.0,63,0.00,,,-99.99,,2013-02-01 04:11:00,
2013-01-31 23:21:00,15.0,7.0,-100.00,SW,225,0.0,0.0,67,0.00,,,-99.99,,2013-02-01 04:21:00,
2013-01-31 23:32:00,15.0,7.0,-100.00,SSW,205,0.0,0.0,70,0.00,,,-99.99,,2013-02-01 04:32:00,
2013-01-31 23:42:00,15.0,6.0,-100.00,South,175,0.0,0.0,68,0.00,,,-99.99,,2013-02-01 04:42:00,
2013-01-31 23:51:00,15.0,6.0,-100.00,SE,145,0.0,0.0,66,0.00,,,-99.99,,2013-02-01 04:51:00,